createdAt,value
2019-05-03T00:01:08.516Z,10.48
2019-05-03T00:03:38.160Z,10.56
2019-05-03T00:06:07.935Z,10.48
2019-05-03T00:08:37.377Z,10.46
2019-05-03T00:11:06.935Z,9.96
2019-05-03T00:13:36.565Z,9.98
2019-05-03T00:16:16.606Z,10.02
2019-05-03T00:18:47.646Z,9.95
2019-05-03T00:21:17.138Z,9.76
2019-05-03T00:23:46.610Z,9.96
2019-05-03T00:26:16.102Z,9.84
2019-05-03T00:28:45.771Z,9.82
2019-05-03T00:31:15.360Z,9.81
2019-05-03T00:33:46.479Z,9.93
2019-05-03T00:36:17.585Z,10.19
2019-05-03T00:38:47.147Z,10.03
2019-05-03T00:41:16.718Z,10.15
2019-05-03T00:43:46.198Z,10.20
2019-05-03T00:46:15.637Z,10.39
2019-05-03T00:48:45.129Z,10.50
2019-05-03T00:51:14.609Z,10.50
2019-05-03T00:53:44.090Z,10.68
2019-05-03T00:56:13.587Z,10.52
2019-05-03T00:58:56.792Z,10.29
2019-05-03T01:01:26.222Z,10.08
2019-05-03T01:03:55.710Z,9.77
2019-05-03T01:06:25.194Z,9.58
2019-05-03T01:08:54.768Z,9.74
2019-05-03T01:11:24.328Z,9.43
2019-05-03T01:13:53.844Z,9.30
2019-05-03T01:16:25.163Z,9.22
2019-05-03T01:18:54.641Z,9.20
2019-05-03T01:21:24.065Z,9.25
2019-05-03T01:23:53.614Z,9.09
2019-05-03T01:26:23.205Z,9.01
2019-05-03T01:28:55.832Z,8.98
2019-05-03T01:31:25.420Z,8.83
2019-05-03T01:33:54.974Z,9.20
2019-05-03T01:36:24.557Z,8.96
2019-05-03T01:38:55.339Z,9.19
2019-05-03T01:41:24.907Z,8.89
2019-05-03T01:43:54.467Z,8.87
2019-05-03T01:46:23.978Z,8.76
2019-05-03T01:48:56.292Z,8.94
2019-05-03T01:51:27.385Z,9.04
2019-05-03T01:53:56.797Z,8.89
2019-05-03T01:56:26.221Z,8.65
2019-05-03T01:58:55.807Z,8.75
2019-05-03T02:01:36.090Z,8.73
2019-05-03T02:04:07.311Z,8.66
2019-05-03T02:06:36.868Z,8.77
2019-05-03T02:09:08.755Z,8.65
2019-05-03T02:11:38.242Z,8.42
2019-05-03T02:14:07.791Z,8.00
2019-05-03T02:16:37.286Z,8.26
2019-05-03T02:19:06.834Z,8.17
2019-05-03T02:21:36.264Z,8.11
2019-05-03T02:24:05.853Z,8.08
2019-05-03T02:26:35.359Z,8.24
2019-05-03T02:29:04.930Z,8.04
2019-05-03T02:31:34.360Z,8.10
2019-05-03T02:34:03.942Z,7.84
2019-05-03T02:36:33.944Z,7.79
2019-05-03T02:39:09.976Z,7.76
2019-05-03T02:41:39.954Z,7.63
2019-05-03T02:44:09.620Z,7.66
2019-05-03T02:46:56.591Z,7.60
2019-05-03T02:49:39.636Z,7.74
2019-05-03T02:52:10.787Z,7.62
2019-05-03T02:54:40.364Z,7.60
2019-05-03T02:57:09.791Z,7.86
2019-05-03T02:59:39.235Z,7.82
2019-05-03T03:02:08.805Z,7.49
2019-05-03T03:04:38.449Z,7.32
2019-05-03T03:07:08.674Z,7.29
2019-05-03T03:09:38.233Z,7.44
2019-05-03T03:12:09.250Z,7.07
2019-05-03T03:14:40.274Z,7.31
2019-05-03T03:17:12.053Z,7.34
2019-05-03T03:19:45.988Z,7.38
2019-05-03T03:22:16.943Z,7.44
2019-05-03T03:24:49.400Z,7.28
2019-05-03T03:27:21.912Z,7.52
2019-05-03T03:29:55.275Z,7.36
2019-05-03T03:32:29.609Z,7.38
2019-05-03T03:35:20.192Z,7.35
2019-05-03T03:37:46.354Z,7.12
2019-05-03T03:40:18.051Z,7.04
2019-05-03T03:42:51.010Z,7.31
2019-05-03T03:45:20.502Z,7.19
2019-05-03T03:47:56.339Z,7.33
2019-05-03T03:50:26.186Z,7.41
2019-05-03T03:52:59.105Z,7.39
2019-05-03T03:55:31.884Z,7.62
2019-05-03T03:58:02.058Z,7.38
2019-05-03T04:00:31.921Z,7.50
2019-05-03T04:03:05.908Z,7.80
2019-05-03T04:05:35.801Z,7.93
2019-05-03T04:08:05.951Z,7.76
2019-05-03T04:10:35.579Z,7.79
2019-05-03T04:13:07.509Z,7.88
2019-05-03T04:15:45.355Z,7.96
2019-05-03T04:18:29.140Z,8.11
2019-05-03T04:20:58.959Z,8.32
2019-05-03T04:26:08.459Z,8.40
2019-05-03T04:29:05.348Z,8.73
2019-05-03T04:31:36.828Z,8.67
2019-05-03T04:34:06.777Z,8.82
2019-05-03T04:36:46.187Z,9.03
2019-05-03T04:39:19.999Z,9.12
2019-05-03T04:41:47.781Z,9.31
2019-05-03T04:44:18.917Z,9.66
2019-05-03T04:46:48.561Z,9.71
2019-05-03T04:49:18.100Z,9.89
2019-05-03T04:51:52.038Z,10.01
2019-05-03T04:54:25.429Z,10.24
2019-05-03T04:56:56.223Z,10.38
2019-05-03T04:59:25.847Z,10.58
2019-05-03T05:02:06.080Z,10.57
2019-05-03T05:04:35.762Z,10.71
2019-05-03T05:07:06.357Z,10.95
2019-05-03T05:12:39.105Z,11.31
2019-05-03T05:15:08.744Z,11.65
2019-05-03T05:17:40.043Z,11.95
2019-05-03T05:20:11.441Z,12.14
2019-05-03T05:22:57.672Z,12.42
2019-05-03T05:25:31.909Z,12.65
2019-05-03T05:31:08.673Z,12.83
2019-05-03T05:35:44.305Z,13.67
2019-05-03T05:36:39.523Z,13.64
2019-05-03T05:39:32.386Z,13.95
2019-05-03T05:41:55.465Z,14.03
2019-05-03T05:44:31.680Z,14.21
2019-05-03T05:47:44.756Z,14.22
2019-05-03T05:49:57.181Z,14.35
2019-05-03T05:52:26.862Z,14.39
2019-05-03T05:58:25.679Z,14.70
2019-05-03T06:01:17.746Z,14.95
2019-05-03T06:03:56.132Z,14.89
2019-05-03T06:06:30.514Z,14.62
2019-05-03T06:09:16.814Z,14.73
2019-05-03T06:11:55.432Z,15.01
2019-05-03T06:14:29.706Z,15.17
2019-05-03T06:17:05.353Z,15.78
2019-05-03T06:19:44.781Z,16.04
2019-05-03T06:22:26.104Z,15.82
2019-05-03T06:25:16.579Z,16.44
2019-05-03T06:27:46.740Z,16.71
2019-05-03T06:30:18.808Z,17.17
2019-05-03T06:32:57.012Z,17.11
2019-05-03T06:35:34.536Z,16.91
2019-05-03T06:41:19.420Z,17.30
2019-05-03T06:43:50.518Z,17.18
2019-05-03T06:46:30.099Z,17.37
2019-05-03T06:49:06.630Z,17.48
2019-05-03T06:51:31.742Z,17.50
2019-05-03T06:57:00.098Z,17.50
2019-05-03T06:59:45.135Z,17.28
2019-05-03T07:02:21.155Z,17.29
2019-05-03T07:04:59.420Z,17.27
2019-05-03T07:09:27.682Z,17.72
2019-05-03T07:12:04.479Z,17.80
2019-05-03T07:14:34.930Z,18.00
2019-05-03T07:17:05.666Z,18.12
2019-05-03T07:19:45.916Z,18.04
2019-05-03T07:22:17.979Z,18.17
2019-05-03T07:24:50.661Z,18.00
2019-05-03T07:27:21.416Z,17.84
2019-05-03T10:59:01.481Z,22.03
2019-05-03T11:04:54.898Z,22.03
2019-05-03T11:07:16.457Z,22.06
2019-05-03T11:09:49.769Z,22.13
2019-05-03T11:12:17.414Z,21.76
2019-05-03T11:14:48.221Z,22.07
2019-05-03T11:17:25.644Z,22.19
2019-05-03T11:19:55.422Z,22.57
2019-05-03T11:22:25.359Z,22.65
2019-05-03T11:28:19.451Z,22.78
2019-05-03T11:30:56.397Z,22.72
2019-05-03T11:33:36.991Z,22.83
2019-05-03T11:36:25.295Z,22.69
2019-05-03T11:38:55.860Z,22.56
2019-05-03T11:41:32.527Z,22.65
2019-05-03T11:44:00.232Z,22.88
2019-05-03T11:49:31.336Z,23.03
2019-05-03T11:52:02.439Z,22.94
2019-05-03T11:54:32.272Z,22.94
2019-05-03T11:57:05.062Z,23.20
2019-05-03T11:59:34.909Z,22.85
2019-05-03T12:02:29.012Z,22.94
2019-05-03T12:05:05.000Z,22.69
2019-05-03T12:07:39.509Z,22.96
2019-05-03T12:10:16.884Z,22.36
2019-05-03T12:12:55.359Z,21.86
2019-05-03T12:15:28.535Z,22.33
2019-05-03T12:18:06.011Z,22.78
2019-05-03T12:20:37.454Z,22.71
2019-05-03T12:23:08.113Z,22.61
2019-05-03T12:25:48.247Z,22.84
2019-05-03T12:31:40.239Z,22.92
2019-05-03T12:34:07.213Z,23.06
2019-05-03T12:36:39.170Z,23.04
2019-05-03T12:39:23.235Z,22.99
2019-05-03T12:41:39.693Z,23.13
2019-05-03T12:44:12.597Z,22.93
2019-05-03T12:47:02.472Z,22.99
2019-05-03T12:49:18.424Z,22.69
2019-05-03T12:51:49.461Z,22.60
2019-05-03T12:54:19.216Z,22.83
2019-05-03T12:57:16.734Z,22.33
2019-05-03T12:59:32.334Z,22.35
2019-05-03T13:02:08.858Z,22.33
2019-05-03T13:04:44.854Z,22.48
2019-05-03T13:07:18.878Z,22.47
2019-05-03T13:09:48.582Z,22.22
2019-05-03T13:12:21.423Z,22.37
2019-05-03T13:14:51.005Z,22.40
2019-05-03T13:17:38.060Z,22.31
2019-05-03T13:20:15.695Z,22.35
2019-05-03T13:22:45.979Z,22.30
2019-05-03T13:25:17.518Z,22.28
2019-05-03T13:28:00.580Z,22.35
2019-05-03T13:33:27.507Z,22.17
2019-05-03T13:35:58.185Z,22.02
2019-05-03T13:38:27.748Z,22.05
2019-05-03T13:40:57.955Z,21.87
2019-05-03T13:43:29.799Z,21.79
2019-05-03T13:45:59.451Z,21.77
2019-05-03T13:48:41.558Z,21.89
2019-05-03T13:51:01.538Z,22.09
2019-05-03T13:53:31.217Z,22.21
2019-05-03T13:56:00.713Z,22.56
2019-05-03T13:58:35.568Z,22.31
2019-05-03T14:01:05.567Z,22.10
2019-05-03T14:03:35.977Z,22.07
2019-05-03T14:06:08.767Z,22.29
2019-05-03T14:08:36.954Z,22.51
2019-05-03T14:11:06.514Z,22.46
2019-05-03T14:13:36.217Z,22.42
2019-05-03T14:16:06.474Z,22.15
2019-05-03T14:18:36.100Z,21.81
2019-05-03T14:21:15.107Z,21.73
2019-05-03T14:24:02.439Z,21.65
2019-05-03T14:26:32.039Z,21.60
2019-05-03T14:29:01.601Z,21.68
2019-05-03T14:31:31.274Z,21.84
2019-05-03T14:34:00.773Z,21.72
2019-05-03T14:36:31.406Z,21.63
2019-05-03T14:39:01.037Z,21.69
2019-05-03T14:41:32.224Z,21.69
2019-05-03T14:44:01.865Z,21.46
2019-05-03T14:46:33.292Z,21.45
2019-05-03T14:49:02.866Z,21.45
2019-05-03T14:51:32.405Z,21.34
2019-05-03T14:54:02.347Z,21.18
2019-05-03T14:56:34.791Z,21.27
2019-05-03T14:59:22.693Z,21.12
2019-05-03T15:01:55.195Z,21.26
2019-05-03T15:04:25.592Z,21.10
2019-05-03T15:06:57.755Z,21.00
2019-05-03T15:09:26.674Z,21.01
2019-05-03T15:11:56.197Z,21.12
2019-05-03T15:14:25.683Z,21.13
2019-05-03T15:16:55.776Z,21.15
2019-05-03T15:19:25.498Z,21.19
2019-05-03T15:21:55.143Z,21.14
2019-05-03T15:24:25.195Z,21.01
2019-05-03T15:26:55.396Z,20.86
2019-05-03T15:29:24.960Z,20.72
2019-05-03T15:31:55.334Z,20.47
2019-05-03T15:34:25.970Z,20.34
2019-05-03T15:36:55.527Z,20.03
2019-05-03T15:39:25.015Z,19.74
2019-05-03T15:41:54.650Z,19.78
2019-05-03T15:44:28.494Z,19.65
2019-05-03T15:47:02.454Z,19.68
2019-05-03T15:49:31.997Z,19.74
2019-05-03T15:52:01.689Z,19.80
2019-05-03T15:54:35.008Z,19.74
2019-05-03T15:57:02.673Z,19.58
2019-05-03T15:59:32.252Z,19.65
2019-05-03T16:02:01.821Z,19.55
2019-05-03T16:04:31.471Z,19.48
2019-05-03T16:07:01.195Z,19.45
2019-05-03T16:09:30.744Z,19.47
2019-05-03T16:12:00.236Z,19.36
2019-05-03T16:14:30.996Z,19.32
2019-05-03T16:17:00.638Z,19.39
2019-05-03T16:19:33.084Z,19.38
2019-05-03T16:22:02.588Z,19.37
2019-05-03T16:24:32.212Z,19.35
2019-05-03T16:27:04.989Z,19.28
2019-05-03T16:29:34.954Z,19.09
2019-05-03T16:32:05.215Z,19.07
2019-05-03T16:34:36.107Z,19.06
2019-05-03T16:37:05.771Z,19.08
2019-05-03T16:39:35.528Z,18.99
2019-05-03T16:42:07.033Z,19.17
2019-05-03T16:44:36.604Z,18.95
2019-05-03T16:47:07.212Z,18.89
2019-05-03T16:49:36.981Z,18.90
2019-05-03T16:52:06.614Z,18.41
2019-05-03T16:54:36.130Z,18.38
2019-05-03T16:57:05.933Z,18.24
2019-05-03T16:59:35.413Z,18.15
2019-05-03T17:02:05.786Z,18.06
2019-05-03T17:04:45.067Z,18.18
2019-05-03T17:07:32.065Z,18.14
2019-05-03T17:10:04.919Z,17.71
2019-05-03T17:12:36.117Z,17.54
2019-05-03T17:15:07.905Z,17.79
2019-05-03T17:17:37.683Z,17.69
2019-05-03T17:20:07.712Z,17.69
2019-05-03T17:22:37.277Z,17.65
2019-05-03T17:25:07.020Z,17.79
2019-05-03T17:27:36.928Z,17.38
2019-05-03T17:30:10.409Z,17.36
2019-05-03T17:32:39.953Z,17.48
2019-05-03T17:35:09.752Z,17.31
2019-05-03T17:37:39.598Z,17.39
2019-05-03T17:40:14.860Z,17.22
2019-05-03T17:43:02.354Z,17.08
2019-05-03T17:45:35.116Z,17.10
2019-05-03T17:48:05.130Z,16.95
2019-05-03T17:50:35.302Z,16.95
2019-05-03T17:53:09.405Z,16.81
2019-05-03T17:55:40.665Z,16.81
2019-05-03T17:58:16.096Z,16.69
2019-05-03T18:01:02.328Z,16.68
2019-05-03T18:03:33.674Z,16.60
2019-05-03T18:06:14.935Z,16.57
2019-05-03T18:08:46.236Z,16.60
2019-05-03T18:11:17.437Z,16.51
2019-05-03T18:13:46.964Z,16.32
2019-05-03T18:16:16.528Z,16.02
2019-05-03T18:18:46.032Z,16.13
2019-05-03T18:21:15.678Z,16.02
2019-05-03T18:23:45.590Z,15.84
2019-05-03T18:26:16.443Z,15.97
2019-05-03T18:28:45.929Z,16.17
2019-05-03T18:31:15.436Z,16.16
2019-05-03T18:33:46.575Z,16.14
2019-05-03T18:36:16.360Z,16.08
2019-05-03T18:38:46.023Z,16.11
2019-05-03T18:41:17.282Z,15.91
2019-05-03T18:44:05.197Z,15.81
2019-05-03T18:46:54.945Z,15.64
2019-05-03T18:49:24.854Z,15.58
2019-05-03T18:51:55.332Z,15.33
2019-05-03T18:54:25.388Z,15.34
2019-05-03T18:56:55.751Z,15.20
2019-05-03T18:59:27.040Z,15.01
2019-05-03T19:01:56.797Z,14.80
2019-05-03T19:04:34.710Z,14.75
2019-05-03T19:07:06.668Z,14.62
2019-05-03T19:09:40.788Z,14.57
2019-05-03T19:12:15.389Z,14.44
2019-05-03T19:14:45.476Z,14.56
2019-05-03T19:17:24.746Z,14.57
2019-05-03T19:20:00.871Z,14.36
2019-05-03T19:22:31.000Z,14.19
2019-05-03T19:25:00.693Z,14.24
2019-05-03T19:27:30.184Z,14.19
2019-05-03T19:29:59.914Z,14.28
2019-05-03T19:32:29.395Z,14.38
2019-05-03T19:34:58.935Z,14.44
2019-05-03T19:37:28.482Z,14.56
2019-05-03T19:39:58.702Z,14.46
2019-05-03T19:42:28.213Z,14.41
2019-05-03T19:44:57.689Z,14.38
2019-05-03T19:47:27.341Z,14.46
2019-05-03T19:49:56.835Z,14.34
2019-05-03T19:52:34.322Z,14.36
2019-05-03T19:55:06.895Z,14.44
2019-05-03T19:57:38.109Z,14.53
2019-05-03T20:00:09.317Z,14.28
2019-05-03T20:02:40.717Z,14.27
2019-05-03T20:05:30.395Z,14.09
2019-05-03T20:08:17.595Z,14.06
2019-05-03T20:10:47.501Z,14.15
2019-05-03T20:13:17.165Z,14.02
2019-05-03T20:15:46.721Z,13.85
2019-05-03T20:18:18.061Z,13.92
2019-05-03T20:20:47.410Z,13.79
2019-05-03T20:23:16.834Z,13.74
2019-05-03T20:25:46.329Z,13.65
2019-05-03T20:28:15.955Z,13.67
2019-05-03T20:30:45.448Z,13.64
2019-05-03T20:33:14.913Z,13.61
2019-05-03T20:35:45.165Z,13.51
2019-05-03T20:38:15.330Z,13.61
2019-05-03T20:40:45.111Z,13.50
2019-05-03T20:43:32.735Z,13.44
2019-05-03T20:46:22.290Z,13.57
2019-05-03T20:48:53.522Z,13.60
2019-05-03T20:51:25.056Z,13.69
2019-05-03T20:53:55.363Z,13.60
2019-05-03T20:56:24.935Z,13.50
2019-05-03T20:58:54.970Z,13.59
2019-05-03T21:01:25.674Z,13.60
2019-05-03T21:03:55.238Z,13.38
2019-05-03T21:06:35.195Z,13.37
2019-05-03T21:08:56.568Z,13.12
2019-05-03T21:11:26.329Z,12.80
2019-05-03T21:13:55.856Z,12.78
2019-05-03T21:16:26.997Z,12.79
2019-05-03T21:19:00.881Z,12.73
2019-05-03T21:21:37.924Z,12.68
2019-05-03T21:24:09.164Z,12.80
2019-05-03T21:26:38.716Z,12.67
2019-05-03T21:29:08.275Z,12.58
2019-05-03T21:31:37.796Z,12.67
2019-05-03T21:34:07.210Z,12.86
2019-05-03T21:36:36.635Z,12.83
2019-05-03T21:39:07.568Z,12.89
2019-05-03T21:41:38.125Z,12.91
2019-05-03T21:44:07.774Z,12.89
2019-05-03T21:46:38.897Z,12.92
2019-05-03T21:49:10.060Z,12.96
2019-05-03T21:51:39.478Z,12.99
2019-05-03T21:54:09.243Z,13.04
2019-05-03T21:56:38.745Z,12.98
2019-05-03T21:59:08.204Z,12.73
2019-05-03T22:01:39.408Z,12.69
2019-05-03T22:04:08.976Z,12.78
2019-05-03T22:06:38.648Z,12.79
2019-05-03T22:09:08.207Z,12.80
2019-05-03T22:11:39.344Z,12.76
2019-05-03T22:14:10.474Z,12.75
2019-05-03T22:16:50.691Z,12.75
2019-05-03T22:19:20.147Z,12.81
2019-05-03T22:21:51.243Z,12.80
2019-05-03T22:24:22.347Z,12.85
2019-05-03T22:26:53.585Z,12.91
2019-05-03T22:29:25.252Z,12.88
2019-05-03T22:31:54.840Z,12.77
2019-05-03T22:34:25.740Z,12.78
2019-05-03T22:36:55.929Z,12.65
2019-05-03T22:39:25.429Z,12.45
2019-05-03T22:41:54.976Z,12.36
2019-05-03T22:44:25.330Z,12.36
2019-05-03T22:46:55.299Z,12.37
2019-05-03T22:49:25.988Z,12.35
2019-05-03T22:51:55.741Z,12.38
2019-05-03T22:54:25.330Z,12.36
2019-05-03T22:56:55.600Z,12.41
2019-05-03T22:59:25.562Z,12.33
2019-05-03T23:01:55.077Z,12.42
2019-05-03T23:04:25.236Z,12.61
2019-05-03T23:06:55.677Z,12.83
2019-05-03T23:09:26.247Z,12.85
2019-05-03T23:11:55.834Z,12.95
2019-05-03T23:14:25.787Z,13.00
2019-05-03T23:16:55.353Z,13.06
2019-05-03T23:19:24.850Z,13.09
2019-05-03T23:22:11.201Z,13.09
2019-05-03T23:24:40.623Z,13.08
2019-05-03T23:27:10.122Z,13.14
2019-05-03T23:29:39.569Z,13.05
2019-05-03T23:32:09.165Z,13.13
2019-05-03T23:34:38.728Z,13.13
2019-05-03T23:37:08.197Z,13.05
2019-05-03T23:39:37.938Z,13.01
2019-05-03T23:42:07.542Z,13.01
2019-05-03T23:44:37.070Z,12.97
2019-05-03T23:47:08.267Z,13.01
2019-05-03T23:49:37.868Z,12.96
2019-05-03T23:52:27.189Z,12.99
2019-05-03T23:55:02.385Z,13.12
2019-05-03T23:57:32.020Z,13.15
